Time;durP1;ratioP1;P1;durP2;ratioP2;P2;SDS_P1;SDS_P2;PMS_P1;PMS_P2;Temp;Humidity;BMP_temperature;BMP_pressure;BME280_temperature;BME280_humidity;BME280_pressure;Samples;Min_cycle;Max_cycle;Signal;HPM_P1;HPM_P2
2023/03/08 00:01:27;;;;;;;;;13.00;11.20;;;;;10.26;37.98;98314.25;5049286;28;8837;-74
2023/03/08 00:03:57;;;;;;;;;11.80;11.60;;;;;10.34;37.66;98304.28;5081410;28;8834;-75
2023/03/08 00:06:27;;;;;;;;;10.20;10.20;;;;;10.34;37.47;98313.94;5030732;28;8842;-75
2023/03/08 00:08:57;;;;;;;;;10.00;10.00;;;;;10.30;37.61;98307.09;5064476;28;8826;-75
2023/03/08 00:11:26;;;;;;;;;13.40;9.80;;;;;10.01;38.04;98309.09;5066427;28;9615;-74
2023/03/08 00:13:55;;;;;;;;;11.20;10.60;;;;;10.18;38.06;98309.28;5066658;28;8845;-75
2023/03/08 00:16:24;;;;;;;;;13.00;10.80;;;;;10.35;37.81;98308.63;5065495;28;8906;-75
2023/03/08 00:18:54;;;;;;;;;5.00;5.00;;;;;10.48;37.36;98303.75;5066797;28;8933;-75
2023/03/08 00:21:23;;;;;;;;;10.20;10.20;;;;;10.60;37.14;98308.47;5017190;28;8936;-73
2023/03/08 00:23:53;;;;;;;;;8.60;8.00;;;;;10.73;37.07;98305.38;5048153;28;8837;-75
2023/03/08 00:26:22;;;;;;;;;12.60;10.80;;;;;10.84;36.74;98297.03;5046150;28;8952;-74
2023/03/08 00:28:51;;;;;;;;;7.80;6.20;;;;;10.89;36.64;98295.09;5045933;28;8850;-75
2023/03/08 00:31:20;;;;;;;;;7.60;7.60;;;;;10.80;36.32;98304.19;5029725;28;8865;-77
2023/03/08 00:33:54;;;;;;;;;9.00;8.00;;;;;10.88;36.56;98302.13;5046555;28;8859;-75
2023/03/08 00:36:23;;;;;;;;;9.00;9.00;;;;;10.88;36.79;98291.59;5032819;28;8941;-73
2023/03/08 00:38:52;;;;;;;;;10.00;9.00;;;;;10.82;36.47;98283.97;5017050;28;8990;-74
2023/03/08 00:41:21;;;;;;;;;15.80;11.20;;;;;10.88;36.63;98296.88;5032980;28;8980;-74
2023/03/08 00:43:50;;;;;;;;;11.00;10.00;;;;;10.85;36.41;98301.41;5030964;28;8931;-75
2023/03/08 00:46:19;;;;;;;;;13.00;12.00;;;;;10.66;36.79;98288.97;5064779;28;8956;-74
2023/03/08 00:48:48;;;;;;;;;15.80;14.80;;;;;10.71;36.70;98291.44;5044218;28;8873;-73
2023/03/08 00:51:20;;;;;;;;;16.80;16.40;;;;;10.56;37.10;98290.28;5062339;28;8853;-74
2023/03/08 00:53:49;;;;;;;;;14.20;14.20;;;;;10.50;37.04;98291.41;5079522;28;8837;-75
2023/03/08 00:56:18;;;;;;;;;13.40;13.40;;;;;10.24;37.36;98300.31;5061602;28;8955;-74
2023/03/08 00:58:47;;;;;;;;;16.00;14.80;;;;;10.17;37.13;98286.56;5046830;28;8844;-74
2023/03/08 01:01:17;;;;;;;;;16.20;15.60;;;;;10.36;36.96;98283.22;5046645;28;10279;-73
2023/03/08 01:03:49;;;;;;;;;17.80;17.00;;;;;10.05;37.05;98288.81;5061929;28;8845;-74
2023/03/08 01:06:19;;;;;;;;;16.80;15.20;;;;;10.07;37.34;98287.84;5046711;28;8865;-73
2023/03/08 01:08:48;;;;;;;;;17.00;14.80;;;;;9.99;37.00;98277.66;5012087;28;8880;-75
2023/03/08 01:11:20;;;;;;;;;14.80;14.80;;;;;9.99;37.30;98280.28;5078539;28;9000;-75
2023/03/08 01:13:51;;;;;;;;;19.00;17.00;;;;;9.89;37.36;98275.44;5062188;28;8879;-74
2023/03/08 01:16:21;;;;;;;;;14.20;14.00;;;;;10.01;37.04;98274.97;5062117;28;8825;-74
2023/03/08 01:18:52;;;;;;;;;19.20;17.00;;;;;9.58;37.70;98271.34;5046958;28;8849;-74
2023/03/08 01:21:23;;;;;;;;;19.60;19.60;;;;;9.71;37.44;98272.59;5044190;28;8884;-74
2023/03/08 01:23:53;;;;;;;;;18.40;15.60;;;;;9.62;37.46;98272.94;5062162;28;8852;-74
2023/03/08 01:26:24;;;;;;;;;22.00;20.60;;;;;9.17;38.00;98281.56;5010723;28;9044;-74
2023/03/08 01:28:57;;;;;;;;;22.20;20.00;;;;;8.82;38.51;98281.03;5043590;28;8866;-73
2023/03/08 01:31:27;;;;;;;;;21.00;21.00;;;;;9.01;37.77;98283.88;5027087;28;8873;-74
2023/03/08 01:33:58;;;;;;;;;20.40;19.60;;;;;9.07;38.00;98283.66;5027435;28;8857;-76
2023/03/08 01:36:28;;;;;;;;;22.00;21.60;;;;;8.94;37.92;98279.75;5026159;28;8923;-75
2023/03/08 01:39:00;;;;;;;;;19.80;19.40;;;;;8.95;37.64;98282.31;5044134;28;8854;-74
2023/03/08 01:41:31;;;;;;;;;24.60;23.60;;;;;9.01;37.56;98300.44;5013823;28;8866;-74
2023/03/08 01:44:02;;;;;;;;;19.60;18.80;;;;;9.12;37.40;98286.09;5013196;28;8864;-73
2023/03/08 01:46:32;;;;;;;;;24.80;21.60;;;;;9.27;37.07;98282.91;5044861;28;8842;-74
2023/03/08 01:49:23;;;;;;;;;24.80;22.60;;;;;9.03;37.21;98279.44;4997813;28;8862;-75
2023/03/08 01:51:57;;;;;;;;;32.75;26.50;;;;;8.74;37.97;98278.66;5042289;28;8846;-72
2023/03/08 01:54:29;;;;;;;;;28.50;23.75;;;;;8.99;37.65;98288.31;5027448;28;8870;-74
2023/03/08 01:57:01;;;;;;;;;30.75;25.75;;;;;8.98;37.26;98284.81;5042297;28;8861;-74
2023/03/08 01:59:33;;;;;;;;;25.00;22.25;;;;;8.92;37.23;98273.69;5028831;28;8918;-74
2023/03/08 02:02:03;;;;;;;;;27.25;26.75;;;;;8.88;37.48;98280.81;5061775;28;8964;-74
2023/03/08 02:04:34;;;;;;;;;24.25;21.50;;;;;9.15;37.15;98281.59;5078453;28;8852;-72
2023/03/08 02:07:04;;;;;;;;;25.75;24.50;;;;;9.03;37.28;98276.81;5044212;28;8899;-73
2023/03/08 02:09:34;;;;;;;;;22.50;22.50;;;;;9.15;36.99;98280.75;5044986;28;8864;-75
2023/03/08 02:12:09;;;;;;;;;30.50;25.25;;;;;9.39;36.54;98287.72;5028688;28;8855;-73
2023/03/08 02:14:39;;;;;;;;;25.00;21.75;;;;;9.27;36.35;98285.53;5078279;28;8857;-74
2023/03/08 02:17:10;;;;;;;;;27.00;22.80;;;;;9.29;36.38;98283.75;5078278;28;9626;-75
2023/03/08 02:19:45;;;;;;;;;29.50;24.50;;;;;9.27;36.47;98282.91;5044059;28;8892;-75
2023/03/08 02:22:17;;;;;;;;;29.75;24.25;;;;;9.43;36.22;98278.84;5062209;28;8841;-74
2023/03/08 02:24:48;;;;;;;;;25.20;23.80;;;;;9.52;36.13;98287.31;5065210;28;8922;-74
2023/03/08 02:27:20;;;;;;;;;24.00;22.00;;;;;9.34;36.27;98283.56;5036645;28;8888;-73
2023/03/08 02:29:49;;;;;;;;;22.40;19.60;;;;;9.34;36.31;98284.41;5015091;28;8950;-74
2023/03/08 02:32:18;;;;;;;;;20.50;18.75;;;;;9.14;36.64;98279.91;5070904;28;8857;-75
2023/03/08 02:34:47;;;;;;;;;20.20;17.80;;;;;9.23;36.16;98284.81;5053175;28;8842;-74
2023/03/08 02:37:15;;;;;;;;;22.60;18.60;;;;;9.13;36.53;98285.19;5047862;28;8876;-75
2023/03/08 02:39:49;;;;;;;;;17.00;17.00;;;;;8.81;36.72;98285.38;5032694;28;8871;-75
2023/03/08 02:42:18;;;;;;;;;17.60;17.20;;;;;8.96;36.46;98284.00;5048573;28;8849;-73
2023/03/08 02:44:47;;;;;;;;;12.80;12.40;;;;;9.03;36.34;98277.66;5066546;28;8856;-75
2023/03/08 02:47:17;;;;;;;;;14.00;13.00;;;;;8.84;36.66;98293.16;5053159;28;8870;-74
2023/03/08 02:49:47;;;;;;;;;15.80;14.40;;;;;8.99;36.02;98290.94;5030199;28;8902;-75
2023/03/08 02:52:16;;;;;;;;;10.80;10.80;;;;;9.03;36.15;98284.66;5030178;28;8936;-75
2023/03/08 02:54:45;;;;;;;;;13.20;12.20;;;;;8.96;36.55;98294.50;5030104;28;8884;-74
2023/03/08 02:57:15;;;;;;;;;12.40;10.20;;;;;8.96;36.16;98297.13;5029784;28;8859;-73
2023/03/08 02:59:46;;;;;;;;;11.40;10.00;;;;;9.11;36.11;98297.50;5060233;28;8850;-75
2023/03/08 03:02:15;;;;;;;;;12.20;10.80;;;;;9.06;36.05;98289.78;5046375;28;9022;-74
2023/03/08 03:04:44;;;;;;;;;12.40;8.60;;;;;9.21;35.83;98289.28;5047005;28;8843;-74
2023/03/08 03:07:13;;;;;;;;;8.20;7.80;;;;;9.20;35.71;98286.69;5083130;28;8866;-74
2023/03/08 03:09:42;;;;;;;;;7.80;7.00;;;;;9.30;35.61;98289.84;5051356;28;8871;-74
2023/03/08 03:12:11;;;;;;;;;8.60;8.60;;;;;9.35;35.60;98294.00;5066324;28;8860;-74
2023/03/08 03:14:43;;;;;;;;;7.60;7.20;;;;;9.18;35.59;98292.00;5049476;28;8844;-74
2023/03/08 03:17:11;;;;;;;;;11.20;8.20;;;;;9.14;36.00;98292.13;4995398;28;8847;-73
2023/03/08 03:19:40;;;;;;;;;9.00;6.00;;;;;9.29;35.66;98296.88;5062917;28;9010;-74
2023/03/08 03:22:09;;;;;;;;;8.40;7.40;;;;;9.13;35.93;98298.31;5029764;28;8863;-73
2023/03/08 03:24:38;;;;;;;;;7.20;7.20;;;;;9.04;35.88;98296.84;5034867;28;8860;-75
2023/03/08 03:27:08;;;;;;;;;8.00;7.40;;;;;9.00;36.06;98300.50;5068896;28;9478;-73
2023/03/08 03:29:39;;;;;;;;;8.20;7.20;;;;;9.19;35.78;98295.47;5085276;28;8853;-74
2023/03/08 03:32:16;;;;;;;;;8.60;8.60;;;;;9.12;35.83;98299.19;5049071;28;8841;-77
2023/03/08 03:34:46;;;;;;;;;9.20;8.40;;;;;9.02;35.82;98301.28;5082518;28;8871;-76
2023/03/08 03:37:17;;;;;;;;;9.80;9.00;;;;;9.00;35.95;98305.72;5065576;28;8887;-73
2023/03/08 03:39:46;;;;;;;;;9.00;8.60;;;;;9.21;35.63;98312.00;5082684;28;8865;-75
2023/03/08 03:42:18;;;;;;;;;8.00;7.40;;;;;9.26;35.62;98310.06;5082660;28;8864;-75
2023/03/08 03:44:57;;;;;;;;;9.20;7.40;;;;;9.24;35.30;98317.97;5048795;28;8880;-74
2023/03/08 03:47:28;;;;;;;;;7.40;7.20;;;;;9.39;35.23;98313.13;5065230;28;8848;-75
2023/03/08 03:50:01;;;;;;;;;7.40;7.00;;;;;9.37;35.26;98315.78;5080795;28;8849;-73
2023/03/08 03:52:38;;;;;;;;;6.00;6.00;;;;;9.27;35.41;98318.78;5047573;28;8869;-74
2023/03/08 03:55:09;;;;;;;;;6.80;6.40;;;;;9.23;35.50;98323.28;5049757;28;8845;-74
2023/03/08 03:57:39;;;;;;;;;8.80;7.60;;;;;9.28;35.23;98325.75;5014639;28;8896;-73
2023/03/08 04:00:14;;;;;;;;;8.80;8.40;;;;;9.19;35.67;98330.38;5064836;28;9677;-75
2023/03/08 04:02:50;;;;;;;;;7.40;7.00;;;;;9.52;35.13;98331.91;4984964;28;8849;-74
2023/03/08 04:05:21;;;;;;;;;5.20;4.00;;;;;9.38;35.25;98335.84;5047253;28;8853;-73
2023/03/08 04:07:53;;;;;;;;;7.00;7.00;;;;;9.54;35.06;98338.78;5049433;28;8949;-75
2023/03/08 04:10:26;;;;;;;;;7.00;7.00;;;;;9.46;35.06;98338.22;5028450;28;8899;-74
2023/03/08 04:12:54;;;;;;;;;7.40;7.40;;;;;9.53;35.01;98346.72;5044306;28;9010;-74
2023/03/08 04:15:24;;;;;;;;;8.20;6.80;;;;;9.59;34.68;98341.25;5028151;28;8882;-74
2023/03/08 04:17:54;;;;;;;;;7.00;7.00;;;;;9.45;35.14;98347.00;5061359;28;8855;-74
2023/03/08 04:20:26;;;;;;;;;8.20;7.00;;;;;9.54;35.03;98344.03;5056047;28;8981;-74
2023/03/08 04:22:59;;;;;;;;;9.00;7.60;;;;;9.57;34.68;98343.09;5060233;28;9637;-75
2023/03/08 04:25:33;;;;;;;;;6.20;6.20;;;;;9.43;34.98;98352.28;5061325;28;8851;-75
2023/03/08 04:28:04;;;;;;;;;9.00;8.80;;;;;9.35;35.08;98354.31;5042934;28;8939;-76
2023/03/08 04:30:34;;;;;;;;;8.40;7.40;;;;;9.48;34.75;98354.75;5072992;28;8953;-74
2023/03/08 04:33:05;;;;;;;;;10.80;9.40;;;;;9.39;35.11;98353.31;5048105;28;8891;-75
2023/03/08 04:35:53;;;;;;;;;8.60;8.00;;;;;9.59;34.57;98359.63;5048541;28;8871;-75
2023/03/08 04:38:25;;;;;;;;;9.00;8.00;;;;;9.59;34.85;98364.88;5049485;28;8880;-75
2023/03/08 04:41:04;;;;;;;;;7.80;7.40;;;;;9.40;34.82;98365.53;5028109;28;8878;-74
2023/03/08 04:43:46;;;;;;;;;6.20;6.20;;;;;9.68;34.63;98366.31;5044191;28;8859;-74
2023/03/08 04:46:18;;;;;;;;;8.00;7.80;;;;;9.72;34.47;98365.28;5023429;28;8948;-75
2023/03/08 04:48:48;;;;;;;;;9.40;8.40;;;;;10.03;34.17;98359.78;5081091;28;8845;-74
2023/03/08 04:51:17;;;;;;;;;9.80;8.00;;;;;9.92;33.95;98361.94;5064110;28;8849;-74
2023/03/08 04:53:47;;;;;;;;;13.40;10.40;;;;;10.01;33.66;98354.59;5047325;28;8993;-74
2023/03/08 04:56:17;;;;;;;;;7.40;7.40;;;;;10.15;33.68;98358.44;5043232;28;8827;-74
2023/03/08 04:58:47;;;;;;;;;8.20;8.20;;;;;9.85;33.79;98366.56;5059988;28;8871;-75
2023/03/08 05:01:22;;;;;;;;;8.00;7.00;;;;;9.75;34.45;98363.41;5060380;28;8839;-73
2023/03/08 05:03:54;;;;;;;;;11.00;11.00;;;;;9.75;33.93;98362.56;5065297;28;8921;-76
2023/03/08 05:06:30;;;;;;;;;2.20;2.20;;;;;9.57;34.30;98353.59;5045770;28;8846;-74
2023/03/08 05:08:59;;;;;;;;;9.20;8.80;;;;;9.75;34.14;98352.91;5029310;28;9620;-74
2023/03/08 05:11:29;;;;;;;;;10.00;8.80;;;;;9.76;34.14;98359.91;5046045;28;8919;-75
2023/03/08 05:13:59;;;;;;;;;17.60;17.20;;;;;9.78;34.18;98355.44;5011946;28;8875;-75
2023/03/08 05:16:29;;;;;;;;;8.00;8.00;;;;;9.74;34.01;98351.19;5028750;28;8961;-74
2023/03/08 05:18:59;;;;;;;;;11.20;9.20;;;;;9.66;34.23;98360.28;5025477;28;8937;-75
2023/03/08 05:21:34;;;;;;;;;10.20;8.80;;;;;9.82;33.86;98356.19;5010138;28;8852;-74
2023/03/08 05:24:03;;;;;;;;;8.60;8.00;;;;;9.83;33.80;98368.38;5009024;28;8856;-76
2023/03/08 05:26:36;;;;;;;;;7.00;7.00;;;;;9.91;33.59;98362.84;5025794;28;9664;-75
2023/03/08 05:29:06;;;;;;;;;8.40;7.00;;;;;9.69;33.92;98374.16;5025420;28;8883;-75
2023/03/08 05:31:40;;;;;;;;;8.00;8.00;;;;;9.97;33.64;98371.38;5025029;28;8938;-76
2023/03/08 05:34:12;;;;;;;;;12.00;8.80;;;;;9.72;33.95;98371.41;5022746;28;8860;-74
2023/03/08 05:36:44;;;;;;;;;8.20;8.20;;;;;9.75;33.89;98366.03;4991644;28;8846;-75
2023/03/08 05:39:13;;;;;;;;;13.40;10.40;;;;;9.87;33.59;98366.50;5046388;28;8979;-76
2023/03/08 05:41:58;;;;;;;;;13.60;10.00;;;;;10.03;33.19;98372.91;5062745;28;8871;-76
2023/03/08 05:44:32;;;;;;;;;11.00;9.60;;;;;10.02;33.37;98377.28;5062824;28;8957;-75
2023/03/08 05:47:01;;;;;;;;;8.80;8.40;;;;;9.96;33.58;98381.91;5061871;28;8868;-76
2023/03/08 05:49:31;;;;;;;;;10.60;10.60;;;;;10.08;33.38;98393.72;5062818;28;8890;-75
2023/03/08 05:52:00;;;;;;;;;13.20;11.40;;;;;10.15;33.24;98387.34;5079532;28;8829;-73
2023/03/08 05:54:29;;;;;;;;;11.20;11.20;;;;;10.44;32.52;98388.81;5062677;28;8899;-74
2023/03/08 05:57:03;;;;;;;;;9.40;9.00;;;;;10.60;32.76;98400.47;5078339;28;8852;-75
2023/03/08 05:59:32;;;;;;;;;15.00;14.00;;;;;10.51;32.52;98403.44;5046187;28;8856;-74
2023/03/08 06:02:04;;;;;;;;;13.40;9.80;;;;;10.68;32.53;98405.41;5052221;28;8836;-73
2023/03/08 06:04:41;;;;;;;;;14.20;13.40;;;;;10.83;32.28;98406.59;5044884;28;8861;-73
2023/03/08 06:07:12;;;;;;;;;9.40;8.00;;;;;11.05;32.13;98406.59;5040852;28;8878;-74
2023/03/08 06:09:46;;;;;;;;;14.20;14.20;;;;;11.01;32.13;98406.78;5043576;28;8991;-75
2023/03/08 06:12:19;;;;;;;;;12.00;10.60;;;;;11.01;31.93;98404.13;5067236;28;8863;-75
2023/03/08 06:14:53;;;;;;;;;15.80;15.40;;;;;10.67;32.14;98408.09;5058899;28;8883;-77
2023/03/08 06:17:24;;;;;;;;;14.20;10.40;;;;;10.87;31.86;98402.94;5053460;28;8869;-75
2023/03/08 06:19:56;;;;;;;;;11.00;10.00;;;;;10.92;31.42;98400.97;5076905;28;8878;-76
2023/03/08 06:22:26;;;;;;;;;20.40;14.80;;;;;11.04;31.57;98414.53;5062367;28;8860;-76
2023/03/08 06:24:56;;;;;;;;;21.60;17.00;;;;;10.91;31.89;98409.78;5063000;28;9027;-76
2023/03/08 06:27:31;;;;;;;;;14.00;12.80;;;;;11.08;31.29;98416.13;5028570;28;8945;-76
2023/03/08 06:30:04;;;;;;;;;13.00;11.60;;;;;11.05;31.38;98410.97;5045986;28;8873;-74
2023/03/08 06:32:34;;;;;;;;;15.60;15.40;;;;;11.24;31.54;98413.69;4996760;28;8903;-75
2023/03/08 06:35:06;;;;;;;;;11.80;11.80;;;;;11.25;30.95;98418.06;5044747;28;8954;-76
2023/03/08 06:37:40;;;;;;;;;10.80;10.40;;;;;11.44;30.89;98413.72;5062147;28;8856;-75
2023/03/08 06:40:12;;;;;;;;;12.00;10.60;;;;;11.63;30.69;98424.31;5064704;28;8863;-76
2023/03/08 06:42:42;;;;;;;;;16.00;16.00;;;;;11.73;30.51;98417.75;5064218;28;9606;-74
2023/03/08 06:45:14;;;;;;;;;11.60;11.60;;;;;11.87;30.13;98416.31;5043438;28;8959;-75
2023/03/08 06:47:43;;;;;;;;;12.40;11.20;;;;;11.99;30.31;98426.28;5044706;28;8854;-75
2023/03/08 06:50:15;;;;;;;;;20.20;16.80;;;;;12.05;30.46;98422.50;5044785;28;8989;-77
2023/03/08 06:52:47;;;;;;;;;11.40;11.00;;;;;12.13;30.19;98429.16;5027898;28;8880;-77
2023/03/08 06:55:19;;;;;;;;;15.40;14.80;;;;;12.23;30.28;98439.28;5044508;28;8890;-75
2023/03/08 06:57:48;;;;;;;;;9.40;9.40;;;;;12.32;30.11;98441.50;5044570;28;8932;-74
2023/03/08 07:00:18;;;;;;;;;18.00;16.60;;;;;12.43;29.58;98448.88;5031635;28;8865;-74
2023/03/08 07:02:48;;;;;;;;;15.60;13.00;;;;;12.52;29.31;98451.09;5047112;28;8862;-74
2023/03/08 07:05:18;;;;;;;;;18.00;16.40;;;;;12.41;29.60;98454.25;5047091;28;8985;-76
2023/03/08 07:07:48;;;;;;;;;23.40;19.60;;;;;12.43;29.69;98454.16;5065893;28;8836;-77
2023/03/08 07:10:19;;;;;;;;;21.60;19.40;;;;;12.53;29.91;98452.81;5051115;28;8871;-76
2023/03/08 07:12:50;;;;;;;;;24.40;20.80;;;;;12.63;29.73;98453.25;5031682;28;10124;-75
2023/03/08 07:15:21;;;;;;;;;27.75;25.75;;;;;12.73;30.04;98454.50;5047786;28;8904;-74
2023/03/08 07:17:54;;;;;;;;;23.80;21.40;;;;;12.86;29.81;98463.59;5061766;28;9000;-75
2023/03/08 07:20:26;;;;;;;;;28.25;25.25;;;;;13.08;29.77;98457.28;5050557;28;8983;-74
2023/03/08 07:22:55;;;;;;;;;14.80;13.00;;;;;13.16;29.05;98462.19;5067178;28;8855;-75
2023/03/08 07:25:24;;;;;;;;;19.60;19.00;;;;;13.07;28.73;98459.06;5067190;28;8992;-74
2023/03/08 07:27:54;;;;;;;;;14.00;13.80;;;;;13.18;28.55;98461.16;5068467;28;8901;-76
2023/03/08 07:30:22;;;;;;;;;12.60;12.20;;;;;13.23;27.94;98464.44;5050567;28;8874;-74
2023/03/08 07:32:53;;;;;;;;;16.40;15.80;;;;;13.33;28.60;98461.34;5034157;28;8932;-74
2023/03/08 07:35:21;;;;;;;;;14.80;13.40;;;;;13.44;28.45;98459.03;5065265;28;8848;-75
2023/03/08 07:37:52;;;;;;;;;14.80;14.80;;;;;13.09;28.61;98456.34;5049996;28;8841;-74
2023/03/08 07:40:21;;;;;;;;;19.80;19.00;;;;;13.45;28.69;98468.66;5049641;28;8954;-75
2023/03/08 07:42:50;;;;;;;;;16.80;16.40;;;;;13.50;28.04;98467.47;5047343;28;8893;-76
2023/03/08 07:45:31;;;;;;;;;14.80;14.00;;;;;13.72;27.97;98465.56;5063667;28;8842;-78
2023/03/08 07:48:01;;;;;;;;;22.40;18.20;;;;;13.76;27.99;98464.47;5063660;28;8830;-77
2023/03/08 07:50:30;;;;;;;;;11.40;10.80;;;;;13.67;27.47;98457.88;5047567;28;8931;-77
2023/03/08 07:53:00;;;;;;;;;13.40;11.20;;;;;13.31;27.49;98456.16;5031146;28;8870;-78
2023/03/08 07:55:29;;;;;;;;;13.20;13.20;;;;;12.60;28.39;98467.44;5031163;28;8890;-77
2023/03/08 07:57:58;;;;;;;;;11.60;11.60;;;;;12.44;28.71;98466.44;5063486;28;8880;-77
2023/03/08 08:00:27;;;;;;;;;12.60;12.60;;;;;12.56;29.19;98467.63;5013909;28;8846;-75
2023/03/08 08:02:56;;;;;;;;;14.00;11.20;;;;;12.84;28.52;98465.44;5063368;28;9592;-76
2023/03/08 08:05:25;;;;;;;;;12.80;11.40;;;;;12.79;28.30;98458.63;5030760;28;8849;-75
2023/03/08 08:07:54;;;;;;;;;15.80;13.80;;;;;12.93;28.98;98458.88;5030600;28;8846;-75
2023/03/08 08:10:24;;;;;;;;;14.40;14.40;;;;;13.19;28.35;98462.91;5063896;28;8854;-76
2023/03/08 08:12:53;;;;;;;;;18.60;13.80;;;;;13.41;28.27;98459.19;5031177;28;8854;-79
2023/03/08 08:15:24;;;;;;;;;18.20;15.20;;;;;13.26;28.10;98461.66;5031037;28;8876;-76
2023/03/08 08:17:53;;;;;;;;;13.20;12.40;;;;;13.39;27.84;98461.91;5048188;28;8971;-75
2023/03/08 08:20:21;;;;;;;;;11.20;9.80;;;;;13.39;27.99;98468.97;5048720;28;8864;-76
2023/03/08 08:22:52;;;;;;;;;11.60;10.60;;;;;13.66;27.75;98464.94;5032326;28;9684;-77
2023/03/08 08:25:21;;;;;;;;;8.80;8.80;;;;;13.78;27.17;98465.25;5081688;28;8871;-75
2023/03/08 08:27:52;;;;;;;;;11.00;9.60;;;;;14.13;26.87;98462.56;5081324;28;8861;-77
2023/03/08 08:30:21;;;;;;;;;13.00;11.60;;;;;14.45;26.79;98455.56;5048275;28;8949;-77
2023/03/08 08:32:50;;;;;;;;;16.40;12.00;;;;;14.65;26.27;98449.19;5048214;28;8876;-75
2023/03/08 08:35:19;;;;;;;;;12.60;11.60;;;;;14.66;26.35;98457.03;5049686;28;8931;-76
2023/03/08 08:37:48;;;;;;;;;14.80;13.80;;;;;14.92;26.26;98461.84;5064449;28;8841;-76
2023/03/08 08:40:17;;;;;;;;;11.40;9.40;;;;;14.53;25.99;98461.28;5048607;28;8867;-75
2023/03/08 08:42:46;;;;;;;;;8.00;7.00;;;;;14.56;25.82;98457.63;5049470;28;8868;-76
2023/03/08 08:45:16;;;;;;;;;8.80;8.60;;;;;14.59;25.75;98460.94;5050636;28;8848;-76
2023/03/08 08:47:45;;;;;;;;;14.80;12.20;;;;;14.76;25.84;98453.91;5058737;28;8865;-77
2023/03/08 08:50:14;;;;;;;;;13.00;12.40;;;;;15.02;26.13;98458.59;5050295;28;8868;-75
2023/03/08 08:52:43;;;;;;;;;5.00;4.80;;;;;15.14;25.56;98464.97;5064680;28;8930;-75
2023/03/08 08:55:12;;;;;;;;;10.40;9.40;;;;;14.70;25.52;98457.72;5048137;28;8879;-75
2023/03/08 08:57:41;;;;;;;;;9.00;8.00;;;;;15.08;25.23;98467.13;5081264;28;9658;-76
2023/03/08 09:00:11;;;;;;;;;7.40;7.00;;;;;15.32;24.92;98463.09;5047731;28;8877;-77
2023/03/08 09:02:41;;;;;;;;;7.80;7.80;;;;;15.76;24.96;98456.97;5015226;28;8849;-78
2023/03/08 09:05:10;;;;;;;;;5.00;4.80;;;;;15.29;24.67;98455.31;5064697;28;8946;-75
2023/03/08 09:07:39;;;;;;;;;6.00;6.00;;;;;15.66;24.83;98450.50;5047592;28;8849;-76
2023/03/08 09:10:09;;;;;;;;;7.60;6.60;;;;;15.60;24.72;98451.75;5046402;28;8860;-79
2023/03/08 09:12:40;;;;;;;;;6.40;6.40;;;;;16.02;24.85;98446.63;5048210;28;8962;-77
2023/03/08 09:15:10;;;;;;;;;7.80;7.00;;;;;16.14;24.54;98450.31;5030156;28;8915;-76
2023/03/08 09:17:41;;;;;;;;;9.80;9.80;;;;;16.14;24.07;98450.31;5047717;28;8958;-76
2023/03/08 09:20:11;;;;;;;;;10.80;8.00;;;;;15.87;24.34;98452.81;5063734;28;8880;-77
2023/03/08 09:22:40;;;;;;;;;8.80;6.60;;;;;16.45;24.49;98445.78;5063652;28;8849;-77
2023/03/08 09:25:10;;;;;;;;;10.00;8.00;;;;;16.32;24.01;98454.47;5048533;28;8888;-76
2023/03/08 09:27:41;;;;;;;;;5.40;4.20;;;;;16.73;23.82;98458.16;5047862;28;8888;-77
2023/03/08 09:30:12;;;;;;;;;6.20;6.20;;;;;16.61;23.99;98449.16;5030850;28;8841;-75
2023/03/08 09:32:43;;;;;;;;;5.60;5.00;;;;;15.86;24.40;98446.69;5048488;28;8877;-76
2023/03/08 09:35:13;;;;;;;;;9.40;9.00;;;;;15.18;25.23;98449.78;5047053;28;8852;-76
2023/03/08 09:37:43;;;;;;;;;9.00;9.00;;;;;15.50;24.66;98453.19;5012925;28;8884;-76
2023/03/08 09:40:20;;;;;;;;;11.40;10.40;;;;;15.94;24.85;98449.69;5013853;28;8915;-75
2023/03/08 09:42:49;;;;;;;;;4.80;4.80;;;;;15.77;24.28;98456.03;5047295;28;8849;-76
2023/03/08 09:45:23;;;;;;;;;5.40;5.40;;;;;15.87;24.11;98452.81;5048769;28;8950;-77
2023/03/08 09:48:03;;;;;;;;;7.00;6.00;;;;;14.92;25.32;98454.75;5046896;28;8848;-76
2023/03/08 09:50:39;;;;;;;;;5.40;4.00;;;;;14.13;26.36;98458.16;5063378;28;8865;-76
2023/03/08 09:53:18;;;;;;;;;4.60;4.60;;;;;14.11;26.37;98453.88;5046427;28;9629;-78
2023/03/08 09:55:51;;;;;;;;;9.20;8.00;;;;;14.28;26.40;98464.38;5046380;28;8849;-76
2023/03/08 09:58:30;;;;;;;;;6.60;5.00;;;;;13.58;27.02;98461.84;5013000;28;8837;-76
2023/03/08 10:01:09;;;;;;;;;5.80;5.80;;;;;13.84;26.94;98460.50;5079995;28;8872;-79
2023/03/08 10:04:04;;;;;;;;;5.00;4.80;;;;;14.63;26.05;98459.84;5012815;28;8860;-76
2023/03/08 10:06:41;;;;;;;;;4.80;4.80;;;;;14.81;25.75;98459.78;5079777;28;9611;-76
2023/03/08 10:09:25;;;;;;;;;7.20;7.20;;;;;14.92;25.72;98459.19;5062987;28;8880;-76
2023/03/08 10:12:00;;;;;;;;;9.00;9.00;;;;;14.83;25.81;98450.00;5063147;28;8885;-76
2023/03/08 10:14:32;;;;;;;;;7.00;7.00;;;;;14.44;26.03;98456.50;5063148;28;8841;-76
2023/03/08 10:17:05;;;;;;;;;5.60;5.00;;;;;14.80;25.58;98460.75;5062904;28;8880;-77
2023/03/08 10:19:42;;;;;;;;;16.00;15.00;;;;;14.91;25.62;98460.16;5046290;28;8852;-77
2023/03/08 10:22:19;;;;;;;;;8.20;8.20;;;;;14.16;26.46;98470.34;5046213;28;8976;-77
2023/03/08 10:24:52;;;;;;;;;9.60;9.60;;;;;13.95;26.89;98459.97;5047641;28;8857;-76
2023/03/08 10:27:24;;;;;;;;;9.60;8.60;;;;;14.24;26.83;98460.22;5080278;28;8877;-76
2023/03/08 10:29:55;;;;;;;;;7.00;7.00;;;;;14.64;26.43;98460.69;5080131;28;8922;-76
2023/03/08 10:32:27;;;;;;;;;9.80;8.40;;;;;15.34;25.71;98449.72;5051822;28;8861;-76
2023/03/08 10:35:03;;;;;;;;;15.60;13.80;;;;;15.85;25.15;98450.28;5053613;28;8871;-76
2023/03/08 10:37:33;;;;;;;;;9.00;7.00;;;;;16.18;25.03;98439.41;5063140;28;8954;-76
2023/03/08 10:40:07;;;;;;;;;5.60;5.60;;;;;16.56;24.63;98438.00;5028855;28;9689;-77
2023/03/08 10:42:36;;;;;;;;;7.60;6.40;;;;;16.03;24.72;98437.69;5047567;28;9693;-76
2023/03/08 10:45:14;;;;;;;;;6.20;6.20;;;;;16.78;24.13;98434.81;5050103;28;8845;-77
2023/03/08 10:47:55;;;;;;;;;7.20;6.20;;;;;16.72;23.65;98430.75;5051513;28;9622;-75
2023/03/08 10:50:28;;;;;;;;;6.60;5.00;;;;;16.93;23.99;98431.19;5051696;28;8879;-78
2023/03/08 10:53:09;;;;;;;;;5.80;5.80;;;;;17.41;23.74;98421.91;5049776;28;9006;-77
2023/03/08 10:55:44;;;;;;;;;10.80;10.80;;;;;17.69;23.24;98426.19;5049896;28;8853;-79
2023/03/08 10:58:29;;;;;;;;;5.80;5.20;;;;;16.82;23.76;98425.72;5066053;28;8868;-76
2023/03/08 11:01:01;;;;;;;;;8.60;7.60;;;;;15.53;25.25;98425.66;5050051;28;8868;-76
2023/03/08 11:03:31;;;;;;;;;9.20;8.00;;;;;15.50;25.44;98420.56;5049767;28;8856;-77
2023/03/08 11:06:04;;;;;;;;;6.00;5.00;;;;;15.65;25.48;98411.72;5049664;28;8837;-75
2023/03/08 11:08:35;;;;;;;;;11.00;9.80;;;;;15.89;25.23;98414.69;5083229;28;8867;-77
2023/03/08 11:11:08;;;;;;;;;7.20;6.60;;;;;16.61;24.80;98412.88;5066406;28;8857;-76
2023/03/08 11:13:40;;;;;;;;;8.20;7.20;;;;;16.96;24.21;98416.84;5016042;28;8865;-76
2023/03/08 11:16:31;;;;;;;;;6.00;6.00;;;;;16.17;24.66;98408.56;5083305;28;8857;-77
2023/03/08 11:19:14;;;;;;;;;4.20;4.20;;;;;15.80;24.95;98409.97;5074916;28;8985;-78
2023/03/08 11:21:55;;;;;;;;;5.20;4.80;;;;;14.75;25.83;98409.88;5109218;28;8847;-77
2023/03/08 11:24:33;;;;;;;;;4.60;4.60;;;;;14.33;26.52;98413.94;5091809;28;8905;-76
2023/03/08 11:27:24;;;;;;;;;4.20;4.20;;;;;14.14;26.82;98408.78;5091504;28;8950;-76
2023/03/08 11:30:04;;;;;;;;;11.60;11.60;;;;;14.95;26.00;98404.31;5008015;28;9064;-77
2023/03/08 11:32:52;;;;;;;;;5.80;5.80;;;;;15.39;25.43;98398.19;4991458;28;8848;-78
2023/03/08 11:35:31;;;;;;;;;5.00;5.00;;;;;15.38;25.61;98395.66;4960225;28;8848;-77
2023/03/08 11:38:10;;;;;;;;;4.80;3.80;;;;;15.87;25.46;98390.09;5007832;28;8859;-76
2023/03/08 11:40:52;;;;;;;;;5.80;5.60;;;;;16.53;24.94;98391.28;5007793;28;9010;-78
2023/03/08 11:43:37;;;;;;;;;7.00;7.00;;;;;17.16;24.21;98387.16;4991690;28;8847;-77
2023/03/08 11:46:13;;;;;;;;;8.80;8.00;;;;;17.56;23.78;98388.97;5007771;28;8925;-78
2023/03/08 11:49:04;;;;;;;;;7.40;7.00;;;;;18.26;23.09;98382.38;4991551;28;8844;-78
2023/03/08 11:51:42;;;;;;;;;6.40;6.20;;;;;18.71;22.36;98378.19;4968957;28;8978;-76
2023/03/08 11:54:19;;;;;;;;;5.00;4.80;;;;;19.12;21.57;98366.31;4968306;28;8904;-77
2023/03/08 11:56:51;;;;;;;;;4.00;4.00;;;;;19.44;21.14;98370.16;4984368;28;8880;-76
2023/03/08 11:59:27;;;;;;;;;5.40;5.40;;;;;19.47;20.90;98367.25;4968848;28;8962;-78